createdAt,value
2023-08-23T00:00:39.717Z,20.01
2023-08-23T00:01:39.740Z,20.02
2023-08-23T00:02:39.748Z,19.95
2023-08-23T00:03:39.730Z,19.92
2023-08-23T00:04:39.664Z,19.90
2023-08-23T00:05:39.628Z,20.00
2023-08-23T00:06:39.628Z,19.94
2023-08-23T00:07:39.612Z,19.92
2023-08-23T00:08:39.610Z,20.04
2023-08-23T00:09:39.587Z,20.02
2023-08-23T00:10:39.616Z,19.86
2023-08-23T00:11:39.565Z,19.82
2023-08-23T00:12:39.548Z,19.82
2023-08-23T00:13:39.546Z,19.79
2023-08-23T00:14:39.533Z,19.70
2023-08-23T00:15:39.540Z,19.78
2023-08-23T00:16:39.527Z,19.70
2023-08-23T00:17:39.512Z,19.78
2023-08-23T00:18:39.492Z,19.75
2023-08-23T00:19:39.505Z,19.67
2023-08-23T00:20:39.476Z,19.68
2023-08-23T00:21:39.456Z,19.70
2023-08-23T00:22:39.444Z,19.70
2023-08-23T00:23:39.433Z,19.78
2023-08-23T00:24:39.424Z,19.75
2023-08-23T00:25:39.430Z,19.75
2023-08-23T00:26:39.428Z,19.80
2023-08-23T00:27:39.414Z,19.71
2023-08-23T00:28:39.384Z,19.71
2023-08-23T00:29:39.393Z,19.85
2023-08-23T00:30:39.427Z,19.86
2023-08-23T00:31:39.355Z,19.75
2023-08-23T00:32:39.428Z,19.72
2023-08-23T00:33:39.484Z,19.72
2023-08-23T00:34:39.314Z,19.72
2023-08-23T00:35:39.320Z,19.75
2023-08-23T00:36:39.299Z,19.70
2023-08-23T00:37:39.279Z,19.78
2023-08-23T00:38:39.289Z,19.71
2023-08-23T00:39:39.279Z,19.70
2023-08-23T00:40:39.247Z,19.67
2023-08-23T00:41:39.240Z,19.67
2023-08-23T00:42:39.259Z,19.71
2023-08-23T00:43:39.211Z,19.72
2023-08-23T00:44:39.232Z,19.71
2023-08-23T00:45:39.218Z,19.76
2023-08-23T00:46:39.201Z,19.64
2023-08-23T00:47:39.230Z,19.71
2023-08-23T00:48:39.182Z,19.68
2023-08-23T00:49:39.163Z,19.89
2023-08-23T00:50:39.150Z,19.80
2023-08-23T00:51:39.145Z,19.86
2023-08-23T00:52:52.099Z,19.82
2023-08-23T00:53:40.106Z,19.83
2023-08-23T00:54:39.103Z,19.80
2023-08-23T00:55:39.094Z,19.87
2023-08-23T00:56:39.078Z,19.75
2023-08-23T00:57:39.063Z,19.76
2023-08-23T00:58:39.078Z,19.64
2023-08-23T00:59:39.043Z,19.57
2023-08-23T01:00:39.031Z,19.47
2023-08-23T01:01:39.074Z,19.46
2023-08-23T01:02:39.031Z,19.53
2023-08-23T01:03:38.997Z,19.57
2023-08-23T01:04:39.001Z,19.58
2023-08-23T01:05:39.028Z,19.58
2023-08-23T01:06:38.975Z,19.55
2023-08-23T01:07:38.947Z,19.68
2023-08-23T01:08:38.961Z,19.64
2023-08-23T01:09:38.931Z,19.64
2023-08-23T01:10:38.920Z,19.57
2023-08-23T01:11:38.979Z,19.65
2023-08-23T01:12:38.895Z,19.55
2023-08-23T01:13:38.899Z,19.57
2023-08-23T01:14:38.904Z,19.43
2023-08-23T01:15:38.872Z,19.49
2023-08-23T01:16:38.939Z,19.49
2023-08-23T01:17:38.882Z,19.47
2023-08-23T01:18:38.846Z,19.40
2023-08-23T01:19:38.834Z,19.45
2023-08-23T01:20:38.809Z,19.49
2023-08-23T01:21:38.817Z,19.58
2023-08-23T01:22:38.804Z,19.50
2023-08-23T01:23:38.777Z,19.52
2023-08-23T01:24:38.765Z,19.53
2023-08-23T01:25:38.756Z,19.42
2023-08-23T01:26:38.745Z,19.43
2023-08-23T01:27:54.563Z,19.43
2023-08-23T01:28:39.732Z,19.40
2023-08-23T01:29:38.709Z,19.46
2023-08-23T01:30:38.745Z,19.46
2023-08-23T01:31:38.722Z,19.58
2023-08-23T01:32:38.713Z,19.45
2023-08-23T01:33:38.682Z,19.38
2023-08-23T01:34:38.652Z,19.46
2023-08-23T01:35:38.642Z,19.31
2023-08-23T01:36:38.649Z,19.24
2023-08-23T01:37:38.623Z,19.34
2023-08-23T01:38:38.610Z,19.32
2023-08-23T01:39:38.603Z,19.42
2023-08-23T01:40:38.602Z,19.39
2023-08-23T01:41:38.594Z,19.42
2023-08-23T01:42:38.567Z,19.35
2023-08-23T01:43:38.569Z,19.34
2023-08-23T01:44:38.550Z,19.39
2023-08-23T01:45:38.572Z,19.38
2023-08-23T01:46:38.575Z,19.24
2023-08-23T01:47:38.563Z,19.38
2023-08-23T01:48:38.499Z,19.28
2023-08-23T01:49:38.492Z,19.25
2023-08-23T01:50:38.480Z,19.16
2023-08-23T01:51:38.479Z,19.17
2023-08-23T01:52:38.457Z,19.25
2023-08-23T01:53:38.455Z,19.24
2023-08-23T01:54:38.435Z,19.32
2023-08-23T01:55:38.422Z,19.31
2023-08-23T01:56:38.432Z,19.27
2023-08-23T01:57:38.414Z,19.21
2023-08-23T01:58:38.399Z,19.23
2023-08-23T01:59:38.383Z,19.17
2023-08-23T02:00:38.386Z,19.16
2023-08-23T02:01:38.388Z,19.12
2023-08-23T02:02:38.421Z,19.15
2023-08-23T02:03:38.416Z,19.25
2023-08-23T02:04:38.327Z,19.23
2023-08-23T02:05:38.331Z,19.24
2023-08-23T02:06:38.309Z,19.25
2023-08-23T02:07:38.293Z,19.28
2023-08-23T02:08:38.299Z,19.25
2023-08-23T02:09:38.289Z,19.25
2023-08-23T02:10:38.290Z,19.21
2023-08-23T02:11:38.249Z,19.20
2023-08-23T02:12:38.243Z,19.24
2023-08-23T02:13:38.243Z,19.15
2023-08-23T02:14:38.212Z,19.06
2023-08-23T02:15:38.261Z,19.20
2023-08-23T02:16:38.213Z,19.13
2023-08-23T02:17:38.218Z,19.21
2023-08-23T02:18:38.227Z,19.20
2023-08-23T02:19:38.161Z,19.16
2023-08-23T02:20:38.166Z,19.16
2023-08-23T02:21:38.143Z,19.20
2023-08-23T02:22:38.146Z,18.99
2023-08-23T02:23:38.131Z,19.17
2023-08-23T02:24:38.112Z,19.21
2023-08-23T02:25:38.089Z,19.13
2023-08-23T02:26:38.097Z,19.17
2023-08-23T02:27:38.081Z,19.12
2023-08-23T02:28:38.083Z,19.13
2023-08-23T02:29:38.047Z,19.13
2023-08-23T02:30:38.049Z,19.10
2023-08-23T02:31:38.085Z,19.13
2023-08-23T02:32:38.071Z,19.15
2023-08-23T02:33:38.009Z,19.02
2023-08-23T02:34:38.018Z,19.07
2023-08-23T02:35:37.987Z,19.06
2023-08-23T02:36:37.972Z,19.13
2023-08-23T02:37:37.959Z,18.96
2023-08-23T02:38:38.005Z,19.05
2023-08-23T02:39:37.945Z,19.13
2023-08-23T02:40:37.934Z,19.05
2023-08-23T02:41:37.929Z,19.01
2023-08-23T02:42:37.912Z,19.06
2023-08-23T02:43:37.917Z,18.93
2023-08-23T02:44:37.902Z,18.96
2023-08-23T02:45:37.875Z,19.02
2023-08-23T02:46:37.898Z,19.01
2023-08-23T02:47:37.871Z,18.91
2023-08-23T02:48:37.846Z,18.83
2023-08-23T02:49:37.865Z,18.75
2023-08-23T02:50:37.844Z,18.84
2023-08-23T02:51:37.808Z,18.69
2023-08-23T02:52:37.799Z,18.79
2023-08-23T02:53:37.789Z,18.71
2023-08-23T02:54:37.784Z,18.75
2023-08-23T02:55:37.837Z,18.68
2023-08-23T02:56:37.776Z,18.69
2023-08-23T02:57:37.788Z,18.69
2023-08-23T02:58:37.734Z,18.71
2023-08-23T02:59:37.738Z,18.90
2023-08-23T03:00:37.761Z,18.93
2023-08-23T03:01:37.716Z,19.01
2023-08-23T03:02:37.753Z,18.89
2023-08-23T03:03:37.679Z,18.93
2023-08-23T03:04:37.672Z,18.96
2023-08-23T03:05:37.667Z,19.02
2023-08-23T03:06:37.688Z,19.05
2023-08-23T03:07:37.637Z,18.96
2023-08-23T03:08:37.638Z,19.01
2023-08-23T03:09:37.617Z,18.91
2023-08-23T03:10:37.606Z,18.76
2023-08-23T03:11:37.600Z,18.91
2023-08-23T03:12:37.585Z,18.68
2023-08-23T03:13:37.582Z,18.78
2023-08-23T03:14:37.575Z,18.68
2023-08-23T03:15:37.552Z,18.68
2023-08-23T03:16:37.606Z,18.53
2023-08-23T03:17:37.587Z,18.54
2023-08-23T03:18:37.532Z,18.62
2023-08-23T03:19:37.508Z,18.65
2023-08-23T03:20:37.492Z,18.60
2023-08-23T03:21:37.480Z,18.56
2023-08-23T03:22:37.514Z,18.54
2023-08-23T03:23:37.478Z,18.68
2023-08-23T03:24:37.474Z,18.68
2023-08-23T03:25:37.447Z,18.62
2023-08-23T03:26:37.435Z,18.47
2023-08-23T03:27:37.418Z,18.60
2023-08-23T03:28:37.432Z,18.57
2023-08-23T03:29:37.415Z,18.60
2023-08-23T03:30:37.465Z,18.66
2023-08-23T03:31:37.393Z,18.51
2023-08-23T03:32:37.406Z,18.53
2023-08-23T03:33:37.356Z,18.60
2023-08-23T03:34:37.347Z,18.66
2023-08-23T03:35:37.354Z,18.60
2023-08-23T03:36:37.323Z,18.57
2023-08-23T03:37:37.310Z,18.51
2023-08-23T03:38:37.324Z,18.64
2023-08-23T03:39:37.290Z,18.49
2023-08-23T03:40:37.302Z,18.59
2023-08-23T03:41:37.285Z,18.59
2023-08-23T03:42:37.265Z,18.56
2023-08-23T03:43:37.243Z,18.60
2023-08-23T03:44:37.259Z,18.53
2023-08-23T03:45:37.224Z,18.68
2023-08-23T03:46:37.256Z,18.62
2023-08-23T03:47:37.217Z,18.69
2023-08-23T03:48:37.193Z,18.53
2023-08-23T03:49:37.237Z,18.54
2023-08-23T03:50:37.170Z,18.49
2023-08-23T03:51:37.163Z,18.49
2023-08-23T03:52:37.159Z,18.62
2023-08-23T03:53:37.158Z,18.51
2023-08-23T03:54:37.152Z,18.44
2023-08-23T03:55:37.127Z,18.41
2023-08-23T03:56:37.104Z,18.53
2023-08-23T03:57:37.088Z,18.42
2023-08-23T03:58:37.081Z,18.54
2023-08-23T03:59:37.090Z,18.54
2023-08-23T04:00:37.061Z,18.50
2023-08-23T04:01:37.111Z,18.53
2023-08-23T04:02:37.065Z,18.46
2023-08-23T04:03:37.185Z,18.49
2023-08-23T04:04:37.108Z,18.41
2023-08-23T04:05:37.006Z,18.54
2023-08-23T04:06:36.995Z,18.47
2023-08-23T04:07:36.992Z,18.62
2023-08-23T04:08:36.980Z,18.54
2023-08-23T04:09:37.807Z,18.44
2023-08-23T04:10:36.978Z,18.50
2023-08-23T04:11:36.953Z,18.53
2023-08-23T04:12:36.932Z,18.62
2023-08-23T04:13:36.933Z,18.56
2023-08-23T04:14:36.947Z,18.57
2023-08-23T04:15:37.391Z,18.49
2023-08-23T04:16:36.897Z,18.57
2023-08-23T04:17:36.918Z,18.53
2023-08-23T04:18:36.865Z,18.56
2023-08-23T04:19:36.861Z,18.41
2023-08-23T04:20:36.840Z,18.51
2023-08-23T04:21:36.825Z,18.36
2023-08-23T04:22:36.814Z,18.41
2023-08-23T04:23:36.819Z,18.47
2023-08-23T04:24:37.380Z,18.46
2023-08-23T04:25:36.782Z,18.47
2023-08-23T04:26:36.833Z,18.41
2023-08-23T04:27:36.779Z,18.44
2023-08-23T04:28:36.764Z,18.46
2023-08-23T04:29:36.741Z,18.51
2023-08-23T04:30:36.725Z,18.49
2023-08-23T04:31:36.732Z,18.56
2023-08-23T04:32:36.772Z,18.56
2023-08-23T04:33:36.767Z,18.47
2023-08-23T04:34:36.687Z,18.41
2023-08-23T04:35:36.690Z,18.42
2023-08-23T04:36:36.660Z,18.39
2023-08-23T04:37:36.661Z,18.46
2023-08-23T04:38:36.646Z,18.50
2023-08-23T04:39:36.637Z,18.59
2023-08-23T04:40:36.620Z,18.57
2023-08-23T04:41:36.629Z,18.56
2023-08-23T04:42:36.633Z,18.68
2023-08-23T04:43:36.586Z,18.64
2023-08-23T04:44:36.572Z,18.66
2023-08-23T04:45:36.637Z,18.59
2023-08-23T04:46:36.574Z,18.57
2023-08-23T04:47:36.624Z,18.69
2023-08-23T04:48:36.536Z,18.69
2023-08-23T04:49:36.528Z,18.53
2023-08-23T04:50:36.509Z,18.53
2023-08-23T04:51:36.503Z,18.59
2023-08-23T04:52:36.513Z,18.47
2023-08-23T04:53:36.485Z,18.41
2023-08-23T04:54:36.467Z,18.47
2023-08-23T04:55:36.452Z,18.53
2023-08-23T04:56:36.443Z,18.38
2023-08-23T04:57:36.437Z,18.51
2023-08-23T04:58:36.468Z,18.50
2023-08-23T04:59:36.426Z,18.47
2023-08-23T05:00:36.406Z,18.49
2023-08-23T05:01:36.445Z,18.46
2023-08-23T05:02:36.425Z,18.42
2023-08-23T05:03:36.370Z,18.44
2023-08-23T05:04:36.364Z,18.46
2023-08-23T05:05:36.376Z,18.44
2023-08-23T05:06:36.334Z,18.56
2023-08-23T05:07:36.332Z,18.56
2023-08-23T05:08:36.334Z,18.68
2023-08-23T05:09:36.300Z,18.65
2023-08-23T05:10:36.309Z,18.69
2023-08-23T05:11:36.293Z,18.86
2023-08-23T05:12:36.265Z,18.65
2023-08-23T05:13:36.259Z,18.71
2023-08-23T05:14:36.280Z,18.72
2023-08-23T05:15:36.247Z,18.65
2023-08-23T05:16:36.242Z,18.62
2023-08-23T05:17:38.920Z,18.76
2023-08-23T05:18:36.208Z,18.74
2023-08-23T05:19:37.430Z,18.65
2023-08-23T05:20:36.186Z,18.60
2023-08-23T05:21:36.181Z,18.54
2023-08-23T05:22:36.157Z,18.54
2023-08-23T05:23:36.150Z,18.68
2023-08-23T05:24:36.141Z,18.64
2023-08-23T05:25:36.141Z,18.60
2023-08-23T05:26:36.121Z,18.44
2023-08-23T05:27:36.109Z,18.66
2023-08-23T05:28:36.107Z,18.54
2023-08-23T05:29:36.080Z,18.57
2023-08-23T05:30:36.106Z,18.44
2023-08-23T05:31:36.136Z,18.50
2023-08-23T05:32:36.070Z,18.49
2023-08-23T05:33:36.051Z,18.49
2023-08-23T05:34:36.024Z,18.46
2023-08-23T05:35:36.015Z,18.46
2023-08-23T05:36:36.009Z,18.49
2023-08-23T05:37:35.990Z,18.42
2023-08-23T05:38:36.016Z,18.44
2023-08-23T05:39:37.610Z,18.50
2023-08-23T05:40:35.973Z,18.44
2023-08-23T05:41:35.956Z,18.51
2023-08-23T05:42:35.941Z,18.47
2023-08-23T05:43:35.932Z,18.60
2023-08-23T05:44:35.918Z,18.75
2023-08-23T05:45:35.939Z,18.84
2023-08-23T05:46:36.159Z,19.02
2023-08-23T05:47:35.918Z,19.17
2023-08-23T05:48:35.875Z,19.62
2023-08-23T05:49:35.860Z,20.00
2023-08-23T05:50:35.869Z,20.34
2023-08-23T05:51:35.839Z,20.56
2023-08-23T05:52:35.845Z,20.97
2023-08-23T05:53:35.822Z,21.36
2023-08-23T05:54:35.804Z,21.59
2023-08-23T05:55:35.800Z,21.74
2023-08-23T05:56:35.809Z,21.89
2023-08-23T05:57:35.781Z,22.23
2023-08-23T05:58:35.781Z,22.23
2023-08-23T05:59:35.757Z,22.14
2023-08-23T06:00:35.743Z,22.24
2023-08-23T06:01:35.741Z,22.26
2023-08-23T06:02:35.776Z,22.31
2023-08-23T06:03:35.739Z,22.48
2023-08-23T06:04:35.701Z,22.45
2023-08-23T06:05:35.707Z,22.46
2023-08-23T06:06:35.758Z,22.57
2023-08-23T06:07:35.667Z,22.56
2023-08-23T06:08:35.657Z,22.64
2023-08-23T06:09:35.641Z,22.42
2023-08-23T06:10:35.631Z,22.39
2023-08-23T06:11:35.639Z,22.69
2023-08-23T06:12:35.618Z,22.93
2023-08-23T06:13:35.602Z,23.09
2023-08-23T06:14:35.592Z,23.18
2023-08-23T06:15:35.589Z,22.88
2023-08-23T06:16:35.610Z,22.64
2023-08-23T06:17:35.563Z,22.60
2023-08-23T06:18:35.586Z,22.51
2023-08-23T06:19:35.552Z,22.49
2023-08-23T06:20:35.525Z,22.59
2023-08-23T06:21:35.515Z,22.44
2023-08-23T06:22:35.512Z,22.52
2023-08-23T06:23:35.516Z,22.60
2023-08-23T06:24:35.493Z,22.78
2023-08-23T06:25:35.498Z,22.56
2023-08-23T06:26:35.469Z,22.72
2023-08-23T06:27:35.450Z,22.93
2023-08-23T06:28:35.449Z,23.00
2023-08-23T06:29:35.437Z,22.81
2023-08-23T06:30:35.462Z,23.07
2023-08-23T06:31:35.417Z,23.25
2023-08-23T06:32:35.427Z,23.25
2023-08-23T06:33:35.387Z,23.14
2023-08-23T06:34:35.416Z,23.26
2023-08-23T06:35:35.370Z,23.16
2023-08-23T06:36:35.408Z,23.38
2023-08-23T06:37:35.378Z,23.67
2023-08-23T06:38:35.452Z,23.77
2023-08-23T06:39:35.318Z,23.41
2023-08-23T06:40:35.308Z,23.23
2023-08-23T06:41:35.306Z,23.39
2023-08-23T06:42:35.301Z,23.53
2023-08-23T06:43:35.269Z,23.06
2023-08-23T06:44:35.260Z,23.14
2023-08-23T06:45:35.262Z,23.57
2023-08-23T06:46:35.257Z,23.81
2023-08-23T06:47:35.272Z,24.12
2023-08-23T06:48:35.217Z,24.30
2023-08-23T06:49:35.194Z,24.44
2023-08-23T06:50:35.263Z,24.39
2023-08-23T06:51:35.177Z,24.55
2023-08-23T06:52:35.172Z,24.64
2023-08-23T06:53:36.617Z,24.26
2023-08-23T06:54:35.159Z,24.42
2023-08-23T06:55:35.131Z,24.29
2023-08-23T06:56:35.116Z,24.41
2023-08-23T06:57:35.110Z,24.64
2023-08-23T06:58:35.105Z,24.71
2023-08-23T06:59:35.089Z,24.74
2023-08-23T07:00:35.117Z,24.86
2023-08-23T07:01:35.065Z,24.87
2023-08-23T07:02:35.135Z,24.60
2023-08-23T07:03:35.205Z,24.48
2023-08-23T07:04:35.071Z,24.27
2023-08-23T07:05:35.105Z,24.00
2023-08-23T07:06:35.049Z,24.29
2023-08-23T07:07:35.022Z,24.49
2023-08-23T07:08:34.994Z,24.55
2023-08-23T07:09:35.002Z,24.52
2023-08-23T07:10:34.977Z,24.56
2023-08-23T07:11:34.962Z,24.71
2023-08-23T07:12:34.947Z,24.86
2023-08-23T07:13:34.949Z,25.11
2023-08-23T07:14:34.977Z,25.16
2023-08-23T07:15:34.928Z,25.35
2023-08-23T07:16:34.953Z,25.20
2023-08-23T07:17:34.940Z,25.44
2023-08-23T07:18:34.891Z,25.42
2023-08-23T07:19:34.875Z,25.16
2023-08-23T07:20:34.882Z,25.04
2023-08-23T07:21:34.853Z,24.90
2023-08-23T07:22:34.873Z,24.82
2023-08-23T07:23:34.837Z,24.82
2023-08-23T07:24:34.828Z,24.55
2023-08-23T07:25:34.827Z,24.52
2023-08-23T07:26:34.798Z,24.41
2023-08-23T07:27:34.792Z,24.30
2023-08-23T07:28:34.782Z,24.02
2023-08-23T07:29:34.773Z,24.11
2023-08-23T07:30:34.802Z,24.02
2023-08-23T07:31:34.748Z,23.94
2023-08-23T07:32:34.756Z,24.09
2023-08-23T07:33:34.729Z,24.53
2023-08-23T07:34:34.733Z,24.41
2023-08-23T07:35:34.716Z,24.44
2023-08-23T07:36:34.690Z,24.75
2023-08-23T07:37:34.692Z,24.87
2023-08-23T07:38:34.707Z,24.64
2023-08-23T07:39:34.657Z,24.42
2023-08-23T07:40:34.675Z,24.74
2023-08-23T07:41:34.644Z,24.82
2023-08-23T07:42:34.655Z,24.83
2023-08-23T07:43:34.643Z,25.07
2023-08-23T07:44:34.634Z,25.02
2023-08-23T07:45:34.666Z,25.12
2023-08-23T07:46:34.635Z,25.01
2023-08-23T07:47:34.579Z,25.04
2023-08-23T07:48:34.604Z,25.19
2023-08-23T07:49:34.554Z,25.61
2023-08-23T07:50:34.539Z,25.83
2023-08-23T07:51:34.551Z,25.78
2023-08-23T07:52:34.526Z,25.79
2023-08-23T07:53:34.518Z,25.49
2023-08-23T07:54:34.533Z,25.66
2023-08-23T07:55:34.489Z,25.79
2023-08-23T07:56:34.480Z,26.13
2023-08-23T07:57:34.497Z,26.08
2023-08-23T07:58:34.460Z,26.17
2023-08-23T07:59:34.483Z,26.12
2023-08-23T08:00:34.436Z,26.24
2023-08-23T08:01:34.470Z,26.38
2023-08-23T08:02:34.484Z,26.51
2023-08-23T08:03:34.438Z,26.46
2023-08-23T08:04:34.949Z,26.36
2023-08-23T08:05:34.390Z,26.34
2023-08-23T08:06:34.396Z,26.35
2023-08-23T08:08:01.376Z,26.36
2023-08-23T08:08:35.356Z,26.50
2023-08-23T08:09:34.353Z,26.19
2023-08-23T08:10:34.352Z,26.20
2023-08-23T08:11:34.318Z,26.36
2023-08-23T08:12:34.311Z,26.16
2023-08-23T08:13:34.303Z,26.36
2023-08-23T08:14:34.296Z,26.31
2023-08-23T08:15:34.288Z,26.36
2023-08-23T08:16:34.326Z,26.38
2023-08-23T08:18:34.260Z,26.49
2023-08-23T08:19:34.247Z,26.78
2023-08-23T08:20:34.232Z,26.83
2023-08-23T08:21:34.210Z,26.51
2023-08-23T08:22:34.200Z,26.32
2023-08-23T08:23:34.214Z,26.60
2023-08-23T08:24:34.183Z,26.56
2023-08-23T08:25:34.203Z,26.42
2023-08-23T08:26:34.189Z,26.44
2023-08-23T08:27:34.146Z,26.75
2023-08-23T08:28:34.142Z,26.51
2023-08-23T08:29:34.127Z,26.66
2023-08-23T08:30:34.126Z,26.73
2023-08-23T08:31:34.142Z,26.90
2023-08-23T08:32:34.202Z,26.35
2023-08-23T08:33:34.081Z,26.73
2023-08-23T08:34:34.083Z,26.53
2023-08-23T08:35:34.057Z,26.57
2023-08-23T08:36:34.052Z,26.53
2023-08-23T08:37:34.048Z,26.56
2023-08-23T08:38:34.032Z,26.65
2023-08-23T08:39:34.038Z,26.49
2023-08-23T08:40:34.002Z,26.32
2023-08-23T08:41:33.993Z,26.32
2023-08-23T08:42:34.007Z,26.86
2023-08-23T08:43:33.983Z,27.24
2023-08-23T08:44:33.961Z,26.72
2023-08-23T08:45:33.978Z,26.68
2023-08-23T08:46:33.944Z,26.88
2023-08-23T08:47:33.969Z,26.79
2023-08-23T08:48:33.918Z,26.81
2023-08-23T08:49:33.908Z,26.93
2023-08-23T08:50:33.921Z,26.75
2023-08-23T08:51:33.889Z,26.31
2023-08-23T08:52:33.873Z,26.42
2023-08-23T08:53:33.888Z,26.68
2023-08-23T08:54:33.855Z,27.12
2023-08-23T08:55:33.845Z,26.83
2023-08-23T08:56:33.849Z,26.41
2023-08-23T08:57:33.824Z,26.87
2023-08-23T08:58:33.871Z,26.57
2023-08-23T08:59:33.820Z,26.69
2023-08-23T09:00:33.922Z,26.75
2023-08-23T09:01:33.861Z,26.97
2023-08-23T09:02:33.762Z,27.25
2023-08-23T09:03:33.817Z,27.23
2023-08-23T09:04:33.744Z,27.13
2023-08-23T09:05:33.732Z,26.98
2023-08-23T09:06:33.727Z,26.68
2023-08-23T09:07:33.719Z,26.68
2023-08-23T09:08:33.700Z,26.76
2023-08-23T09:09:33.703Z,27.18
2023-08-23T09:10:33.676Z,27.34
2023-08-23T09:11:33.668Z,27.23
2023-08-23T09:12:33.657Z,27.24
2023-08-23T09:13:33.680Z,27.52
2023-08-23T09:14:33.672Z,28.08
2023-08-23T09:15:33.669Z,27.96
2023-08-23T09:16:33.618Z,28.20
2023-08-23T09:17:33.659Z,28.14
2023-08-23T09:18:33.588Z,28.02
2023-08-23T09:19:33.578Z,28.39
2023-08-23T09:20:33.583Z,28.51
2023-08-23T09:21:33.561Z,28.67
2023-08-23T09:22:33.546Z,28.67
2023-08-23T09:23:33.535Z,28.88
2023-08-23T09:24:33.528Z,28.67
2023-08-23T09:25:33.521Z,28.72
2023-08-23T09:26:33.516Z,28.87
2023-08-23T09:27:37.308Z,29.17
2023-08-23T09:28:33.480Z,29.44
2023-08-23T09:29:33.480Z,29.51
2023-08-23T09:30:33.509Z,29.23
2023-08-23T09:31:33.470Z,29.26
2023-08-23T09:32:33.544Z,29.35
2023-08-23T09:33:33.429Z,29.26
2023-08-23T09:34:33.429Z,29.36
2023-08-23T09:35:33.420Z,29.17
2023-08-23T09:36:33.394Z,29.18
2023-08-23T09:37:33.381Z,29.66
2023-08-23T09:38:33.374Z,29.57
2023-08-23T09:39:33.397Z,29.88
2023-08-23T09:40:33.367Z,30.19
2023-08-23T09:41:33.601Z,29.55
2023-08-23T09:42:33.348Z,29.62
2023-08-23T09:43:33.321Z,30.10
2023-08-23T09:44:33.360Z,30.23
2023-08-23T09:45:33.308Z,29.84
2023-08-23T09:46:33.433Z,30.03
2023-08-23T09:47:33.418Z,29.79
2023-08-23T09:48:33.300Z,29.91
2023-08-23T09:49:33.257Z,29.63
2023-08-23T09:50:33.252Z,29.91
2023-08-23T09:51:33.254Z,30.03
2023-08-23T09:52:33.227Z,30.25
2023-08-23T09:53:33.215Z,30.21
2023-08-23T09:54:43.708Z,30.11
2023-08-23T09:55:34.206Z,29.78
2023-08-23T09:56:33.182Z,29.62
2023-08-23T09:57:33.175Z,29.54
2023-08-23T09:58:33.172Z,29.88
2023-08-23T09:59:33.150Z,29.57
2023-08-23T10:00:33.158Z,29.44
2023-08-23T10:01:34.027Z,29.45
2023-08-23T10:02:33.226Z,29.52
2023-08-23T10:03:33.136Z,29.39
2023-08-23T10:04:33.097Z,29.47
2023-08-23T10:05:33.102Z,29.94
2023-08-23T10:06:33.078Z,29.84
2023-08-23T10:07:33.059Z,29.60
2023-08-23T10:08:33.047Z,29.54
2023-08-23T10:09:33.049Z,29.27
2023-08-23T10:10:33.026Z,29.21
2023-08-23T10:11:42.069Z,29.42
2023-08-23T10:12:34.005Z,29.70
2023-08-23T10:13:33.003Z,30.10
2023-08-23T10:14:32.980Z,29.97
2023-08-23T10:15:33.030Z,30.37
2023-08-23T10:16:32.985Z,30.42
2023-08-23T10:17:32.970Z,30.56
2023-08-23T10:18:32.980Z,30.61
2023-08-23T10:19:32.935Z,30.56
2023-08-23T10:20:32.930Z,30.60
2023-08-23T10:21:32.918Z,30.73
2023-08-23T10:22:36.014Z,30.70
2023-08-23T10:23:32.941Z,30.42
2023-08-23T10:24:32.978Z,30.76
2023-08-23T10:25:32.872Z,30.59
2023-08-23T10:26:32.909Z,30.64
2023-08-23T10:27:32.917Z,30.91
2023-08-23T10:28:34.246Z,30.81
2023-08-23T10:29:32.905Z,30.76
2023-08-23T10:30:32.810Z,30.94
2023-08-23T10:31:32.815Z,31.31
2023-08-23T10:32:32.802Z,31.45
2023-08-23T10:33:32.927Z,31.41
2023-08-23T10:34:32.788Z,30.96
2023-08-23T10:35:32.762Z,30.90
2023-08-23T10:36:32.751Z,30.76
2023-08-23T10:37:32.747Z,30.51
2023-08-23T10:38:32.714Z,30.15
2023-08-23T10:39:32.715Z,29.71
2023-08-23T10:40:32.700Z,29.54
2023-08-23T10:41:32.692Z,29.44
2023-08-23T10:42:32.676Z,29.25
2023-08-23T10:43:32.677Z,28.94
2023-08-23T10:44:32.653Z,28.95
2023-08-23T10:45:32.642Z,29.18
2023-08-23T10:46:32.675Z,29.49
2023-08-23T10:47:32.685Z,29.60
2023-08-23T10:48:32.637Z,29.60
2023-08-23T10:49:32.617Z,29.97
2023-08-23T10:50:32.612Z,30.22
2023-08-23T10:51:32.577Z,30.06
2023-08-23T10:52:32.565Z,29.84
2023-08-23T10:53:32.558Z,29.64
2023-08-23T10:54:32.542Z,29.55
2023-08-23T10:55:32.574Z,29.63
2023-08-23T10:56:32.526Z,29.55
2023-08-23T10:57:32.520Z,29.82
2023-08-23T10:58:32.498Z,29.76
2023-08-23T10:59:32.488Z,29.58
2023-08-23T11:00:32.488Z,29.51
2023-08-23T11:01:32.546Z,29.44
2023-08-23T11:02:32.516Z,29.92
2023-08-23T11:03:32.473Z,30.08
2023-08-23T11:04:32.442Z,30.21
2023-08-23T11:05:32.468Z,30.26
2023-08-23T11:06:32.451Z,30.53
2023-08-23T11:07:32.418Z,30.36
2023-08-23T11:08:32.536Z,30.23
2023-08-23T11:09:32.394Z,30.54
2023-08-23T11:10:32.401Z,30.67
2023-08-23T11:11:32.361Z,31.27
2023-08-23T11:12:32.357Z,31.15
2023-08-23T11:13:32.335Z,31.16
2023-08-23T11:14:32.328Z,31.00
2023-08-23T11:15:32.328Z,31.15
2023-08-23T11:16:32.331Z,30.96
2023-08-23T11:17:32.293Z,30.57
2023-08-23T11:18:32.290Z,30.30
2023-08-23T11:19:32.279Z,30.30
2023-08-23T11:20:32.307Z,30.29
2023-08-23T11:21:32.256Z,30.32
2023-08-23T11:22:32.271Z,30.42
2023-08-23T11:23:32.232Z,30.75
2023-08-23T11:24:32.235Z,31.09
2023-08-23T11:25:32.221Z,31.40
2023-08-23T11:26:32.208Z,31.46
2023-08-23T11:27:32.186Z,31.38
2023-08-23T11:28:32.188Z,31.30
2023-08-23T11:29:32.175Z,31.18
2023-08-23T11:30:32.173Z,31.27
2023-08-23T11:31:32.189Z,31.47
2023-08-23T11:32:32.167Z,31.32
2023-08-23T11:33:32.124Z,31.46
2023-08-23T11:34:32.110Z,31.46
2023-08-23T11:35:32.117Z,31.42
2023-08-23T11:36:32.090Z,31.16
2023-08-23T11:37:32.092Z,30.98
2023-08-23T11:38:32.095Z,30.60
2023-08-23T11:39:32.059Z,30.44
2023-08-23T11:40:32.047Z,30.38
2023-08-23T11:41:32.044Z,30.66
2023-08-23T11:42:32.041Z,30.67
2023-08-23T11:43:32.014Z,30.57
2023-08-23T11:44:32.019Z,30.67
2023-08-23T11:45:32.014Z,30.60
2023-08-23T11:46:32.047Z,30.45
2023-08-23T11:47:31.999Z,30.67
2023-08-23T11:48:31.963Z,30.93
2023-08-23T11:49:31.976Z,30.73
2023-08-23T11:50:31.941Z,30.85
2023-08-23T11:51:31.931Z,30.97
2023-08-23T11:52:31.916Z,30.40
2023-08-23T11:53:31.906Z,30.23
2023-08-23T11:54:31.949Z,30.36
2023-08-23T11:55:31.911Z,30.75
2023-08-23T11:56:31.907Z,30.98
2023-08-23T11:57:31.865Z,30.83
2023-08-23T11:58:31.909Z,30.76
2023-08-23T11:59:31.858Z,30.60
2023-08-23T12:00:31.902Z,30.86
2023-08-23T12:01:31.898Z,31.16
2023-08-23T12:02:31.925Z,31.00
2023-08-23T12:03:31.891Z,30.94
2023-08-23T12:04:31.792Z,30.88
2023-08-23T12:05:31.795Z,30.94
2023-08-23T12:06:31.774Z,30.98
2023-08-23T12:07:31.773Z,31.13
2023-08-23T12:08:31.744Z,30.88
2023-08-23T12:09:31.737Z,30.40
2023-08-23T12:10:31.784Z,30.46
2023-08-23T12:11:31.722Z,30.21
2023-08-23T12:12:31.710Z,30.23
2023-08-23T12:13:31.721Z,30.22
2023-08-23T12:14:31.679Z,30.57
2023-08-23T12:15:31.676Z,30.86
2023-08-23T12:16:31.693Z,31.18
2023-08-23T12:17:31.659Z,31.18
2023-08-23T12:18:31.660Z,30.94
2023-08-23T12:19:32.213Z,30.94
2023-08-23T12:20:31.627Z,30.63
2023-08-23T12:21:31.598Z,30.90
2023-08-23T12:22:31.587Z,31.09
2023-08-23T12:23:31.724Z,30.94
2023-08-23T12:24:31.565Z,30.36
2023-08-23T12:25:32.592Z,30.48
2023-08-23T12:26:31.589Z,30.40
2023-08-23T12:27:31.546Z,30.10
2023-08-23T12:28:31.525Z,29.99
2023-08-23T12:29:31.515Z,29.81
2023-08-23T12:30:31.509Z,29.95
2023-08-23T12:31:31.511Z,30.10
2023-08-23T12:32:31.559Z,30.16
2023-08-23T12:33:31.486Z,30.23
2023-08-23T12:34:31.462Z,29.95
2023-08-23T12:35:31.453Z,29.91
2023-08-23T12:36:31.443Z,29.52
2023-08-23T12:37:31.449Z,29.64
2023-08-23T12:38:31.415Z,29.86
2023-08-23T12:39:31.406Z,30.15
2023-08-23T12:40:31.394Z,30.18
2023-08-23T12:41:31.387Z,30.15
2023-08-23T12:42:31.399Z,30.22
2023-08-23T12:43:31.458Z,30.13
2023-08-23T12:44:31.361Z,29.92
2023-08-23T12:45:31.362Z,29.76
2023-08-23T12:46:31.341Z,29.55
2023-08-23T12:47:31.325Z,29.47
2023-08-23T12:48:31.303Z,29.39
2023-08-23T12:49:31.327Z,29.17
2023-08-23T12:50:31.310Z,29.07
2023-08-23T12:51:31.277Z,29.25
2023-08-23T12:52:31.282Z,29.32
2023-08-23T12:53:31.252Z,29.45